Time;durP1;ratioP1;P1;durP2;ratioP2;P2;SDS_P1;SDS_P2;PMS_P1;PMS_P2;Temp;Humidity;BMP_temperature;BMP_pressure;BME280_temperature;BME280_humidity;BME280_pressure;Samples;Min_cycle;Max_cycle;Signal;HPM_P1;HPM_P2
2022/02/10 00:18:21;;;;;;;5.93;3.30;;;6.50;99.90;;;;;;4966636;29;20657;-83
2022/02/10 00:20:52;;;;;;;7.47;3.53;;;6.50;99.90;;;;;;4965542;28;20202;-85
2022/02/10 00:23:37;;;;;;;7.20;4.25;;;6.50;99.90;;;;;;4964786;28;20198;-85
2022/02/10 00:34:22;;;;;;;6.95;3.90;;;6.20;99.90;;;;;;4964061;28;20220;-85
2022/02/10 00:36:58;;;;;;;11.43;5.70;;;6.30;99.90;;;;;;4963645;28;20673;-84
2022/02/10 00:39:40;;;;;;;9.18;3.95;;;6.10;99.90;;;;;;4962738;28;20268;-84
2022/02/10 00:42:08;;;;;;;7.90;3.95;;;6.00;99.90;;;;;;4963778;28;20200;-84
2022/02/10 00:44:35;;;;;;;9.00;3.95;;;6.30;99.90;;;;;;4973595;28;20230;-84
2022/02/10 00:47:02;;;;;;;7.60;3.63;;;6.20;99.90;;;;;;4966048;28;20543;-84
2022/02/10 00:49:29;;;;;;;7.60;3.65;;;6.20;99.90;;;;;;4963714;28;20212;-85
2022/02/10 00:51:56;;;;;;;10.38;3.80;;;5.90;99.90;;;;;;4962587;28;20236;-84
2022/02/10 00:54:26;;;;;;;7.85;4.28;;;5.70;99.90;;;;;;4963331;28;20655;-85
2022/02/10 00:56:56;;;;;;;7.47;3.42;;;6.10;99.90;;;;;;4968397;28;20218;-84
2022/02/10 00:59:33;;;;;;;7.40;3.78;;;5.80;99.90;;;;;;4967989;28;20228;-84
2022/02/10 01:10:33;;;;;;;5.78;3.50;;;5.90;99.90;;;;;;4969031;29;20196;-85
2022/02/10 01:13:09;;;;;;;5.43;3.28;;;5.90;99.90;;;;;;4964871;28;20650;-85
2022/02/10 01:32:06;;;;;;;5.80;3.20;;;5.90;99.90;;;;;;4960563;28;20213;-85
2022/02/10 01:34:36;;;;;;;8.88;3.15;;;5.70;99.90;;;;;;4962167;28;20253;-85
2022/02/10 01:37:03;;;;;;;5.45;3.20;;;5.80;99.90;;;;;;4961072;28;20197;-85
2022/02/10 01:39:35;;;;;;;6.95;3.60;;;5.80;99.90;;;;;;4964027;28;20253;-86
2022/02/10 01:42:35;;;;;;;7.70;3.65;;;5.80;99.90;;;;;;4964084;28;20202;-87
2022/02/10 02:04:25;;;;;;;6.50;3.03;;;5.50;99.90;;;;;;4963791;28;20303;-84
2022/02/10 02:06:56;;;;;;;6.82;3.03;;;5.60;99.90;;;;;;4960733;28;20213;-85
2022/02/10 02:09:23;;;;;;;5.78;2.90;;;5.50;99.90;;;;;;4960599;28;20229;-85
2022/02/10 02:11:52;;;;;;;7.20;3.70;;;5.80;99.90;;;;;;4960184;28;20210;-84
2022/02/10 02:14:22;;;;;;;5.78;3.45;;;5.50;99.90;;;;;;4961188;28;20648;-85
2022/02/10 02:16:52;;;;;;;5.82;2.78;;;5.50;99.90;;;;;;4975022;28;20201;-85
2022/02/10 02:19:20;;;;;;;7.45;2.65;;;5.50;99.90;;;;;;4963526;28;20302;-85
2022/02/10 02:21:47;;;;;;;7.40;2.70;;;5.60;99.90;;;;;;4961918;28;20216;-85
2022/02/10 02:24:20;;;;;;;6.85;3.33;;;5.60;99.90;;;;;;4961670;28;20233;-85
2022/02/10 02:26:48;;;;;;;5.55;3.72;;;5.80;99.90;;;;;;4961569;28;20221;-85
2022/02/10 02:29:18;;;;;;;6.30;3.75;;;5.10;99.90;;;;;;4961072;28;20206;-84
2022/02/10 02:31:50;;;;;;;5.45;2.67;;;5.70;99.90;;;;;;4961977;28;20198;-85
2022/02/10 02:34:48;;;;;;;6.97;3.67;;;5.70;99.90;;;;;;4961539;28;20249;-84
2022/02/10 02:37:35;;;;;;;8.43;3.05;;;5.10;99.90;;;;;;4961693;28;20205;-85
2022/02/10 03:03:55;;;;;;;6.88;3.55;;;5.40;99.90;;;;;;4962506;28;20281;-84
2022/02/10 03:05:14;;;;;;;8.40;3.38;;;6.00;99.90;;;;;;4971895;28;20228;-86
2022/02/10 03:07:47;;;;;;;6.20;3.00;;;6.10;99.90;;;;;;4965275;28;20194;-85
2022/02/10 03:13:27;;;;;;;7.35;3.17;;;6.00;99.90;;;;;;4943233;29;20609;-85
2022/02/10 03:16:08;;;;;;;5.32;3.13;;;6.00;99.90;;;;;;4953837;29;20199;-84
2022/02/10 03:18:42;;;;;;;4.82;2.72;;;5.90;99.90;;;;;;4961948;28;20607;-85
2022/02/10 03:21:29;;;;;;;6.03;2.80;;;5.90;99.90;;;;;;4967323;28;20699;-85
2022/02/10 04:08:00;;;;;;;5.43;2.50;;;5.50;99.90;;;;;;4951675;28;20722;-84
2022/02/10 04:10:58;;;;;;;9.25;4.13;;;5.60;99.90;;;;;;4963314;28;20202;-84
2022/02/10 04:13:37;;;;;;;6.65;2.72;;;5.40;99.90;;;;;;4963670;28;20556;-84
2022/02/10 04:16:12;;;;;;;7.75;3.67;;;5.40;99.90;;;;;;4963519;28;20204;-84
2022/02/10 04:21:38;;;;;;;5.60;3.00;;;5.40;99.90;;;;;;4965055;28;20220;-85
2022/02/10 04:24:22;;;;;;;5.35;2.70;;;5.60;99.90;;;;;;4995103;23;20232;-90
2022/02/10 04:26:57;;;;;;;7.25;3.47;;;5.50;99.90;;;;;;5000756;28;20200;-89
2022/02/10 04:54:47;;;;;;;4.90;2.70;;;5.00;99.90;;;;;;5003206;28;20247;-90
2022/02/10 04:57:32;;;;;;;7.10;3.05;;;5.30;99.90;;;;;;5000262;28;20214;-90
2022/02/10 05:00:15;;;;;;;7.00;3.15;;;4.90;99.90;;;;;;5006369;28;20648;-91
2022/02/10 05:16:49;;;;;;;5.68;2.50;;;5.80;99.90;;;;;;5009663;28;20191;-87
2022/02/10 05:19:33;;;;;;;5.90;2.58;;;5.80;99.90;;;;;;5005381;28;20291;-88
2022/02/10 05:31:20;;;;;;;5.55;2.75;;;5.60;99.90;;;;;;4998802;28;20318;-87
2022/02/10 05:35:49;;;;;;;5.63;2.85;;;6.30;99.90;;;;;;5002949;28;20294;-87
2022/02/10 05:38:22;;;;;;;8.52;3.10;;;6.20;99.90;;;;;;5005122;28;20235;-88
2022/02/10 05:41:41;;;;;;;7.30;2.88;;;6.40;99.90;;;;;;5006145;28;20593;-88
2022/02/10 05:44:07;;;;;;;5.35;2.92;;;6.30;99.90;;;;;;5001142;28;20320;-89
2022/02/10 05:47:01;;;;;;;7.65;3.13;;;6.20;99.90;;;;;;5001170;28;20232;-88
2022/02/10 05:55:24;;;;;;;5.93;2.85;;;6.20;99.90;;;;;;5007268;28;20625;-89
2022/02/10 05:57:59;;;;;;;7.13;3.00;;;6.30;99.90;;;;;;5005930;28;20199;-90
2022/02/10 06:47:53;;;;;;;7.47;3.53;;;5.90;99.90;;;;;;5000811;28;20204;-89
2022/02/10 06:50:56;;;;;;;6.03;3.15;;;5.70;99.90;;;;;;5004141;28;20241;-92
2022/02/10 06:53:35;;;;;;;9.45;4.10;;;5.70;99.90;;;;;;4999559;28;20212;-90
2022/02/10 06:56:39;;;;;;;6.85;3.45;;;5.90;99.90;;;;;;5000316;28;20223;-90
2022/02/10 07:05:25;;;;;;;10.07;4.32;;;6.10;99.90;;;;;;5001171;28;20311;-90
2022/02/10 07:08:10;;;;;;;8.45;3.85;;;6.00;99.90;;;;;;4998790;28;20258;-91
2022/02/10 07:48:02;;;;;;;7.10;3.80;;;6.80;99.90;;;;;;5164380;27;20186;-90
2022/02/10 07:51:06;;;;;;;13.48;6.13;;;7.00;99.90;;;;;;5174684;27;20195;-89
2022/02/10 07:53:52;;;;;;;14.40;7.05;;;7.10;99.90;;;;;;5174405;27;20242;-90
2022/02/10 07:56:39;;;;;;;8.75;5.70;;;7.30;99.90;;;;;;5168487;27;20200;-88
2022/02/10 08:57:34;;;;;;;6.17;3.73;;;9.30;99.90;;;;;;5136405;27;20445;-88
2022/02/10 09:12:02;;;;;;;7.03;3.87;;;9.90;99.90;;;;;;5062343;28;20949;-88
2022/02/10 09:14:57;;;;;;;9.43;3.37;;;9.90;99.90;;;;;;5055010;28;20476;-88
2022/02/10 09:59:52;;;;;;;7.27;3.50;;;11.50;99.90;;;;;;5077592;27;20439;-89
2022/02/10 10:02:30;;;;;;;10.23;3.53;;;11.50;99.90;;;;;;5054107;28;20479;-89
2022/02/10 10:05:04;;;;;;;8.33;3.80;;;11.60;99.90;;;;;;5051216;28;20840;-88
2022/02/10 10:07:52;;;;;;;10.20;3.50;;;11.80;99.90;;;;;;5052646;28;20994;-88
2022/02/10 10:16:06;;;;;;;8.90;4.10;;;11.70;99.90;;;;;;5054330;28;20492;-89
2022/02/10 10:19:02;;;;;;;6.47;3.77;;;11.70;99.90;;;;;;5047894;27;20457;-89
2022/02/10 10:21:42;;;;;;;6.30;3.27;;;11.90;99.90;;;;;;5047711;28;20442;-87
2022/02/10 10:24:24;;;;;;;9.57;3.40;;;12.00;99.90;;;;;;5047507;28;20523;-90
2022/02/10 10:27:24;;;;;;;8.33;3.70;;;12.10;99.90;;;;;;5054017;28;20487;-88
2022/02/10 10:44:48;;;;;;;7.20;3.83;;;12.80;98.50;;;;;;5110005;28;20478;-84
2022/02/10 10:50:09;;;;;;;7.70;4.23;;;13.10;97.90;;;;;;5084320;28;20434;-85
2022/02/10 10:52:53;;;;;;;11.27;4.30;;;13.20;97.90;;;;;;5087714;28;20414;-85
2022/02/10 10:55:34;;;;;;;6.67;3.70;;;13.20;97.60;;;;;;5082193;28;20500;-86
2022/02/10 10:58:10;;;;;;;8.87;3.70;;;13.10;97.80;;;;;;5081997;28;20956;-85
2022/02/10 11:03:58;;;;;;;7.27;3.10;;;12.90;98.70;;;;;;5056105;28;20435;-86
2022/02/10 11:38:17;;;;;;;7.80;3.17;;;12.90;98.90;;;;;;5081510;28;20458;-85
2022/02/10 12:36:44;;;;;;;11.27;5.80;;;12.40;99.90;;;;;;5085066;28;20557;-86
2022/02/10 12:42:33;;;;;;;9.13;5.17;;;12.30;99.90;;;;;;5083441;28;20433;-85
2022/02/10 14:09:46;;;;;;;15.33;7.70;;;10.40;99.90;;;;;;5086884;28;20454;-85
2022/02/10 14:15:12;;;;;;;13.00;7.40;;;10.30;99.90;;;;;;5085495;28;20467;-84
2022/02/10 14:17:47;;;;;;;11.00;6.93;;;10.30;99.90;;;;;;5087172;28;20427;-85
2022/02/10 14:20:34;;;;;;;12.10;7.40;;;10.40;99.90;;;;;;5095158;28;20419;-85
2022/02/10 14:23:17;;;;;;;13.13;8.03;;;10.50;99.90;;;;;;5091925;28;20437;-85
2022/02/10 14:25:51;;;;;;;9.90;6.37;;;10.40;99.90;;;;;;5084735;28;20923;-86
2022/02/10 14:28:21;;;;;;;11.20;6.63;;;10.50;99.90;;;;;;5083991;28;20490;-86
2022/02/10 14:30:50;;;;;;;9.70;7.07;;;10.50;99.90;;;;;;5084256;28;20569;-86
2022/02/10 14:33:22;;;;;;;10.97;7.20;;;10.40;99.90;;;;;;5084967;28;20456;-84
2022/02/10 14:35:54;;;;;;;9.27;6.50;;;10.40;99.90;;;;;;5087738;28;20964;-85
2022/02/10 14:38:36;;;;;;;11.93;7.37;;;10.20;99.90;;;;;;5094543;28;20962;-85
2022/02/10 14:41:28;;;;;;;10.13;6.33;;;10.20;99.90;;;;;;5088095;28;20447;-85
2022/02/10 15:53:43;;;;;;;14.63;7.80;;;9.80;99.90;;;;;;5087601;28;20470;-84
2022/02/10 16:14:03;;;;;;;9.53;6.47;;;9.90;99.90;;;;;;5083467;28;20485;-85
2022/02/10 16:18:45;;;;;;;11.80;7.60;;;10.00;99.90;;;;;;5082900;28;20534;-85
2022/02/10 16:21:18;;;;;;;11.67;6.67;;;9.90;99.90;;;;;;5082980;28;20425;-85
2022/02/10 16:23:47;;;;;;;12.10;6.53;;;9.70;99.90;;;;;;5082278;28;20459;-85
2022/02/10 16:26:18;;;;;;;15.60;7.30;;;9.50;99.90;;;;;;5094363;28;20201;-86
2022/02/10 16:28:45;;;;;;;13.50;7.60;;;9.40;99.90;;;;;;5083611;28;20492;-85
2022/02/10 16:31:14;;;;;;;13.53;7.50;;;9.30;99.90;;;;;;5082004;28;20208;-85
2022/02/10 16:33:43;;;;;;;13.53;8.23;;;9.40;99.90;;;;;;5090582;28;20448;-85
2022/02/10 16:36:16;;;;;;;9.95;5.55;;;9.40;99.90;;;;;;5082126;28;20460;-84
2022/02/10 16:38:47;;;;;;;13.00;5.87;;;9.60;99.90;;;;;;5138683;22;20309;-89
2022/02/10 16:41:19;;;;;;;9.90;5.20;;;9.60;99.90;;;;;;5128109;28;20438;-90
2022/02/10 16:43:48;;;;;;;5.23;4.00;;;9.70;99.90;;;;;;5126567;28;20411;-90
2022/02/10 16:46:16;;;;;;;7.13;3.80;;;9.80;99.90;;;;;;5128808;28;20434;-89
2022/02/10 16:49:17;;;;;;;6.77;4.10;;;9.80;99.90;;;;;;5127930;28;20460;-90
2022/02/10 16:51:46;;;;;;;5.60;3.50;;;9.90;99.90;;;;;;5094908;28;20471;-91
2022/02/10 16:54:37;;;;;;;5.80;3.50;;;9.90;99.90;;;;;;5124873;27;20479;-90
2022/02/10 16:57:13;;;;;;;6.80;3.60;;;10.00;99.90;;;;;;5131681;28;20442;-89
2022/02/10 16:59:50;;;;;;;9.40;4.70;;;9.90;99.90;;;;;;5135448;28;20457;-92
2022/02/10 17:02:42;;;;;;;6.50;3.37;;;9.80;99.90;;;;;;5126260;28;20459;-90
2022/02/10 17:05:31;;;;;;;7.77;3.50;;;9.80;99.90;;;;;;5128447;28;20430;-90
2022/02/10 17:19:28;;;;;;;6.37;4.13;;;10.00;99.90;;;;;;5124944;28;20437;-90
2022/02/10 17:27:27;;;;;;;6.87;3.47;;;10.20;99.90;;;;;;5126454;28;20407;-89
2022/02/10 17:33:00;;;;;;;6.30;3.50;;;10.10;99.90;;;;;;5117205;27;20430;-91
2022/02/10 17:44:53;;;;;;;6.60;3.13;;;9.90;99.90;;;;;;5128101;28;20883;-90
2022/02/10 17:53:01;;;;;;;5.63;3.40;;;10.00;99.90;;;;;;5132601;28;20759;-89
2022/02/10 17:55:28;;;;;;;8.10;3.97;;;10.10;99.90;;;;;;5130225;28;20486;-90
2022/02/10 17:58:00;;;;;;;8.03;4.00;;;10.00;99.90;;;;;;5129890;28;20922;-90
2022/02/10 18:00:30;;;;;;;8.73;3.60;;;10.00;99.90;;;;;;5132587;28;20418;-89
2022/02/10 18:03:01;;;;;;;5.90;3.30;;;10.10;99.90;;;;;;5133661;27;20469;-89
2022/02/10 18:08:24;;;;;;;9.63;3.87;;;10.00;99.90;;;;;;5121585;28;20522;-89
2022/02/10 18:13:42;;;;;;;6.60;3.60;;;10.00;99.90;;;;;;5126312;28;20456;-89
2022/02/10 18:16:15;;;;;;;7.18;4.00;;;9.90;99.90;;;;;;5129856;28;20431;-88
2022/02/10 18:19:16;;;;;;;6.13;3.87;;;9.90;99.90;;;;;;5133011;27;20624;-88
2022/02/10 18:27:30;;;;;;;9.63;3.80;;;9.90;99.90;;;;;;5130565;28;20430;-86
2022/02/10 18:30:16;;;;;;;8.13;4.63;;;9.80;99.90;;;;;;5127050;28;20984;-89
2022/02/10 19:07:19;;;;;;;5.60;3.30;;;9.90;99.90;;;;;;4853153;27;8945273;-89
2022/02/10 19:13:17;;;;;;;9.13;4.82;;;9.70;99.90;;;;;;5127684;28;20429;-87
2022/02/10 19:22:32;;;;;;;9.70;5.27;;;9.60;99.90;;;;;;5130258;28;20437;-86
2022/02/10 19:25:47;;;;;;;8.60;4.80;;;9.50;99.90;;;;;;5131075;28;20474;-88
2022/02/10 19:28:23;;;;;;;8.27;4.20;;;9.50;99.90;;;;;;5114153;28;20473;-90
2022/02/10 19:30:50;;;;;;;7.75;3.83;;;9.40;99.90;;;;;;5130425;28;20215;-88
2022/02/10 19:33:17;;;;;;;11.00;4.27;;;9.40;99.90;;;;;;5131605;28;20205;-88
2022/02/10 19:35:46;;;;;;;9.90;4.30;;;9.40;99.90;;;;;;5125786;28;20548;-87
2022/02/10 19:38:18;;;;;;;6.50;3.85;;;9.30;99.90;;;;;;5123927;28;20462;-88
2022/02/10 19:40:50;;;;;;;6.73;3.97;;;9.30;99.90;;;;;;5124292;28;20204;-87
2022/02/10 19:43:19;;;;;;;8.00;4.00;;;9.40;99.90;;;;;;5124200;28;20500;-86
2022/02/10 19:45:47;;;;;;;6.00;3.70;;;9.40;99.90;;;;;;5127829;28;20475;-88
2022/02/10 19:48:14;;;;;;;6.33;3.50;;;9.40;99.90;;;;;;5127982;28;20493;-88
2022/02/10 19:50:42;;;;;;;10.53;4.83;;;9.40;99.90;;;;;;5127888;28;20433;-89
2022/02/10 19:53:10;;;;;;;13.40;7.30;;;9.40;99.90;;;;;;5124398;28;20454;-86
2022/02/10 19:55:42;;;;;;;9.18;4.38;;;9.50;99.90;;;;;;5125057;28;20464;-85
2022/02/10 19:58:12;;;;;;;7.40;4.13;;;9.40;99.90;;;;;;5126937;28;20300;-86
2022/02/10 20:00:44;;;;;;;5.67;3.23;;;9.40;99.90;;;;;;5118628;28;20929;-87
2022/02/10 20:03:15;;;;;;;7.65;4.15;;;9.40;99.90;;;;;;5124346;28;20464;-86
2022/02/10 20:05:45;;;;;;;8.53;4.83;;;9.40;99.90;;;;;;5119514;28;20254;-86
2022/02/10 20:08:13;;;;;;;7.40;4.80;;;9.30;99.90;;;;;;5120395;28;20442;-86
2022/02/10 20:10:42;;;;;;;8.27;5.00;;;9.30;99.90;;;;;;5119440;28;20545;-86
2022/02/10 20:13:13;;;;;;;7.13;4.55;;;9.20;99.90;;;;;;5116374;28;20454;-86
2022/02/10 20:15:40;;;;;;;9.50;4.73;;;9.20;99.90;;;;;;5114337;28;20189;-88
2022/02/10 20:18:12;;;;;;;8.60;4.43;;;9.10;99.90;;;;;;5111395;28;20428;-88
2022/02/10 20:20:39;;;;;;;9.27;4.80;;;9.10;99.90;;;;;;5117394;28;20437;-88
2022/02/10 20:23:06;;;;;;;7.63;4.13;;;9.10;99.90;;;;;;5110981;28;20455;-88
2022/02/10 20:25:33;;;;;;;7.10;3.77;;;9.20;99.90;;;;;;5111208;28;20673;-87
2022/02/10 20:28:02;;;;;;;8.65;4.88;;;9.20;99.90;;;;;;5109900;28;20414;-87
2022/02/10 20:30:31;;;;;;;7.53;4.30;;;9.20;99.90;;;;;;5110523;28;20273;-89
2022/02/10 20:32:57;;;;;;;6.60;4.30;;;9.00;99.90;;;;;;5111111;28;20477;-88
2022/02/10 20:35:24;;;;;;;10.40;4.13;;;8.90;99.90;;;;;;5111195;28;20481;-88
2022/02/10 20:37:59;;;;;;;7.78;4.60;;;9.10;99.90;;;;;;5114104;28;20460;-85
2022/02/10 20:40:27;;;;;;;6.43;3.90;;;9.00;99.90;;;;;;5113796;28;20220;-88
2022/02/10 20:42:57;;;;;;;7.20;4.47;;;8.90;99.90;;;;;;5110199;28;20504;-87
2022/02/10 20:45:25;;;;;;;13.70;5.80;;;8.90;99.90;;;;;;5116235;28;20213;-87
2022/02/10 20:47:52;;;;;;;9.93;5.43;;;8.90;99.90;;;;;;5116652;28;20812;-87
2022/02/10 20:50:22;;;;;;;8.83;5.57;;;8.90;99.90;;;;;;5113923;28;20526;-88
2022/02/10 20:52:52;;;;;;;9.07;4.67;;;9.00;99.90;;;;;;5111651;28;20434;-88
2022/02/10 20:55:19;;;;;;;8.57;4.53;;;9.30;99.90;;;;;;5110739;28;20444;-89
2022/02/10 20:57:45;;;;;;;6.07;4.53;;;9.20;99.90;;;;;;5110867;28;20949;-87
2022/02/10 21:00:16;;;;;;;8.20;4.50;;;9.10;99.90;;;;;;5112069;28;20575;-88
2022/02/10 21:02:46;;;;;;;7.67;4.67;;;9.00;99.90;;;;;;5111435;28;20440;-88
2022/02/10 21:05:26;;;;;;;10.05;4.70;;;8.90;99.90;;;;;;5111387;28;20449;-87
2022/02/10 21:08:02;;;;;;;11.93;5.25;;;8.80;99.90;;;;;;5114567;28;20195;-87
2022/02/10 21:10:30;;;;;;;9.23;5.10;;;8.70;99.90;;;;;;5112663;28;20186;-87
2022/02/10 21:12:57;;;;;;;6.68;4.50;;;8.70;99.90;;;;;;5102785;28;20239;-86
2022/02/10 21:15:29;;;;;;;7.37;4.73;;;8.80;99.90;;;;;;5102458;28;20221;-86
2022/02/10 21:18:01;;;;;;;8.02;4.50;;;8.70;99.90;;;;;;5105478;28;20538;-86
2022/02/10 21:20:31;;;;;;;10.15;5.43;;;8.70;99.90;;;;;;5108243;28;20192;-86
2022/02/10 21:23:06;;;;;;;9.83;6.60;;;8.80;99.90;;;;;;5110470;28;20201;-86
2022/02/10 21:25:36;;;;;;;7.10;4.15;;;8.90;99.90;;;;;;5110506;28;20474;-87
2022/02/10 21:28:15;;;;;;;8.57;4.50;;;9.00;99.90;;;;;;5102044;28;20221;-87
2022/02/10 21:30:44;;;;;;;9.03;5.63;;;9.00;99.90;;;;;;5101398;28;20431;-86
2022/02/10 21:33:20;;;;;;;7.40;4.43;;;9.00;99.90;;;;;;5108127;28;20855;-88
2022/02/10 21:38:31;;;;;;;6.00;4.07;;;9.30;99.90;;;;;;5078808;28;20314;-88
2022/02/10 21:54:53;;;;;;;7.53;4.93;;;8.90;99.90;;;;;;5107916;28;20437;-89
2022/02/10 21:57:45;;;;;;;7.90;4.93;;;8.90;99.90;;;;;;5109327;28;20442;-87
2022/02/10 22:03:33;;;;;;;11.02;6.30;;;9.00;99.90;;;;;;5113015;28;20465;-89
2022/02/10 22:06:37;;;;;;;8.80;5.40;;;9.00;99.90;;;;;;5111110;28;20231;-88
2022/02/10 22:12:03;;;;;;;9.70;5.10;;;8.90;99.90;;;;;;5110446;28;20279;-87
2022/02/10 22:17:39;;;;;;;9.07;5.53;;;8.90;99.90;;;;;;5113594;28;20184;-88
2022/02/10 22:20:11;;;;;;;11.93;5.57;;;8.90;99.90;;;;;;5113288;28;20293;-87
2022/02/10 22:22:50;;;;;;;8.85;5.72;;;9.00;99.90;;;;;;5111593;28;20435;-86
2022/02/10 22:25:17;;;;;;;9.38;6.03;;;8.90;99.90;;;;;;5113024;28;20259;-87
2022/02/10 22:27:48;;;;;;;8.95;4.90;;;8.90;99.90;;;;;;5112717;28;20238;-85
2022/02/10 22:30:22;;;;;;;10.45;5.88;;;8.90;99.90;;;;;;5111812;28;20308;-87
2022/02/10 22:32:59;;;;;;;9.65;5.90;;;8.90;99.90;;;;;;5110175;28;20212;-88
2022/02/10 22:35:29;;;;;;;13.07;5.97;;;8.90;99.90;;;;;;5109821;28;20696;-87
2022/02/10 22:37:57;;;;;;;9.40;5.10;;;8.90;99.90;;;;;;5111012;28;20201;-88
2022/02/10 22:40:40;;;;;;;9.30;6.25;;;8.90;99.90;;;;;;5109306;28;20460;-88
2022/02/10 22:43:08;;;;;;;12.30;5.97;;;9.00;99.90;;;;;;5109276;28;20217;-88
2022/02/10 22:45:35;;;;;;;12.35;5.95;;;8.90;99.90;;;;;;5111598;28;20216;-87
2022/02/10 22:48:02;;;;;;;11.65;4.97;;;8.90;99.90;;;;;;5103823;22;20235;-85
2022/02/10 22:50:29;;;;;;;8.90;5.30;;;9.00;99.90;;;;;;5078759;28;20217;-83
2022/02/10 22:52:57;;;;;;;10.05;4.75;;;9.00;99.90;;;;;;5081495;28;20282;-83
2022/02/10 22:55:24;;;;;;;8.38;5.45;;;8.90;99.90;;;;;;5087056;28;20680;-83
2022/02/10 22:57:51;;;;;;;7.72;4.60;;;8.90;99.90;;;;;;5099004;28;20232;-84
2022/02/10 23:00:29;;;;;;;8.52;5.72;;;8.90;99.90;;;;;;5108329;28;20293;-83
2022/02/10 23:02:57;;;;;;;6.35;4.80;;;8.90;99.90;;;;;;5100542;28;20189;-84
2022/02/10 23:05:24;;;;;;;7.55;4.90;;;8.90;99.90;;;;;;5099005;28;20267;-83
2022/02/10 23:07:55;;;;;;;7.47;4.85;;;8.90;99.90;;;;;;5098344;28;20626;-84
2022/02/10 23:10:43;;;;;;;13.63;5.82;;;8.90;99.90;;;;;;5098416;28;20188;-83
2022/02/10 23:13:10;;;;;;;8.32;4.35;;;9.00;99.90;;;;;;5098873;28;20258;-84
2022/02/10 23:15:38;;;;;;;6.97;4.03;;;9.10;99.90;;;;;;5097487;28;20185;-84
2022/02/10 23:18:07;;;;;;;8.25;4.72;;;9.10;99.90;;;;;;5099446;28;20472;-84
2022/02/10 23:20:34;;;;;;;9.65;4.80;;;9.20;99.90;;;;;;5097860;28;20216;-84
2022/02/10 23:23:03;;;;;;;9.60;4.83;;;9.30;99.90;;;;;;5097380;28;20209;-84
2022/02/10 23:25:32;;;;;;;7.70;4.87;;;9.20;99.90;;;;;;5097901;28;20560;-84
2022/02/10 23:27:59;;;;;;;7.97;4.60;;;9.20;99.90;;;;;;5098774;28;20548;-83
2022/02/10 23:30:26;;;;;;;8.30;5.10;;;9.20;99.90;;;;;;5098702;28;20430;-85
2022/02/10 23:32:57;;;;;;;7.67;5.03;;;9.10;99.90;;;;;;5098209;28;20451;-83
2022/02/10 23:36:07;;;;;;;8.70;4.50;;;9.10;99.90;;;;;;5098395;28;20439;-84
2022/02/10 23:38:22;;;;;;;7.30;4.33;;;9.20;99.90;;;;;;5102104;28;20494;-84
2022/02/10 23:41:17;;;;;;;9.63;4.47;;;9.20;99.90;;;;;;5098552;28;20533;-83
2022/02/10 23:43:43;;;;;;;6.37;4.30;;;9.10;99.90;;;;;;5097044;28;20651;-83
2022/02/10 23:46:10;;;;;;;6.30;4.40;;;9.00;99.90;;;;;;5097348;28;20483;-83
2022/02/10 23:48:37;;;;;;;9.82;4.18;;;9.10;99.90;;;;;;5096564;28;20540;-83
2022/02/10 23:51:04;;;;;;;8.30;4.37;;;9.00;99.90;;;;;;5098474;28;20643;-83
2022/02/10 23:53:31;;;;;;;7.63;4.50;;;9.00;99.90;;;;;;5103857;28;20473;-83
2022/02/10 23:56:02;;;;;;;7.70;4.57;;;9.00;99.90;;;;;;5103723;28;20823;-83
2022/02/10 23:58:36;;;;;;;6.93;4.27;;;9.00;99.90;;;;;;5101377;28;20547;-83
